sensor_id;sensor_type;location;lat;lon;timestamp;pressure;altitude;pressure_sealevel;temperature;humidity
42433;BME280;28071;48.232;20.668;2023-10-09T00:01:27;100529.03;;;4.62;100.00
42433;BME280;28071;48.232;20.668;2023-10-09T00:06:28;100542.59;;;4.49;100.00
42433;BME280;28071;48.232;20.668;2023-10-09T00:11:37;100522.47;;;4.22;100.00
42433;BME280;28071;48.232;20.668;2023-10-09T00:16:42;100524.25;;;4.65;100.00
42433;BME280;28071;48.232;20.668;2023-10-09T00:22:01;100519.88;;;3.86;100.00
42433;BME280;28071;48.232;20.668;2023-10-09T00:27:05;100508.09;;;3.45;100.00
42433;BME280;28071;48.232;20.668;2023-10-09T00:32:15;100454.88;;;3.16;100.00
42433;BME280;28071;48.232;20.668;2023-10-09T00:37:19;100478.91;;;3.21;100.00
42433;BME280;28071;48.232;20.668;2023-10-09T00:42:34;100508.16;;;3.36;100.00
42433;BME280;28071;48.232;20.668;2023-10-09T00:47:38;100510.81;;;3.53;100.00
42433;BME280;28071;48.232;20.668;2023-10-09T00:52:44;100526.72;;;3.79;100.00
42433;BME280;28071;48.232;20.668;2023-10-09T00:57:53;100511.38;;;3.29;100.00
42433;BME280;28071;48.232;20.668;2023-10-09T01:03:01;100489.25;;;3.04;100.00
42433;BME280;28071;48.232;20.668;2023-10-09T01:08:21;100525.31;;;2.75;100.00
42433;BME280;28071;48.232;20.668;2023-10-09T01:13:46;100472.47;;;2.41;100.00
42433;BME280;28071;48.232;20.668;2023-10-09T01:18:52;100401.66;;;2.21;100.00
42433;BME280;28071;48.232;20.668;2023-10-09T01:23:53;100506.22;;;2.83;100.00
42433;BME280;28071;48.232;20.668;2023-10-09T01:29:03;100504.91;;;2.96;100.00
42433;BME280;28071;48.232;20.668;2023-10-09T01:34:04;100502.97;;;2.98;100.00
42433;BME280;28071;48.232;20.668;2023-10-09T01:39:09;100520.00;;;3.22;100.00
42433;BME280;28071;48.232;20.668;2023-10-09T01:44:27;100527.69;;;3.05;100.00
42433;BME280;28071;48.232;20.668;2023-10-09T01:49:34;100522.06;;;2.54;100.00
42433;BME280;28071;48.232;20.668;2023-10-09T01:54:38;100460.00;;;1.86;100.00
42433;BME280;28071;48.232;20.668;2023-10-09T01:59:40;100520.06;;;2.75;100.00
42433;BME280;28071;48.232;20.668;2023-10-09T02:04:44;100504.25;;;2.85;100.00
42433;BME280;28071;48.232;20.668;2023-10-09T02:09:45;100505.19;;;2.93;100.00
42433;BME280;28071;48.232;20.668;2023-10-09T02:14:47;100493.34;;;2.79;100.00
42433;BME280;28071;48.232;20.668;2023-10-09T02:19:48;100492.75;;;3.23;100.00
42433;BME280;28071;48.232;20.668;2023-10-09T02:24:49;100481.03;;;2.90;100.00
42433;BME280;28071;48.232;20.668;2023-10-09T02:29:50;100477.22;;;2.74;100.00
42433;BME280;28071;48.232;20.668;2023-10-09T02:34:53;100467.88;;;2.53;100.00
42433;BME280;28071;48.232;20.668;2023-10-09T02:39:54;100434.13;;;2.20;100.00
42433;BME280;28071;48.232;20.668;2023-10-09T02:44:56;100471.22;;;2.45;100.00
42433;BME280;28071;48.232;20.668;2023-10-09T02:49:59;100480.59;;;2.47;100.00
42433;BME280;28071;48.232;20.668;2023-10-09T02:55:08;100500.34;;;2.61;100.00
42433;BME280;28071;48.232;20.668;2023-10-09T03:00:13;100506.47;;;2.42;100.00
42433;BME280;28071;48.232;20.668;2023-10-09T03:05:29;100480.34;;;2.50;100.00
42433;BME280;28071;48.232;20.668;2023-10-09T03:10:29;100499.19;;;2.17;100.00
42433;BME280;28071;48.232;20.668;2023-10-09T03:15:30;100487.53;;;2.39;100.00
42433;BME280;28071;48.232;20.668;2023-10-09T03:20:35;100478.13;;;2.46;100.00
42433;BME280;28071;48.232;20.668;2023-10-09T03:25:36;100478.44;;;2.80;100.00
42433;BME280;28071;48.232;20.668;2023-10-09T03:30:38;100475.63;;;2.54;100.00
42433;BME280;28071;48.232;20.668;2023-10-09T03:35:40;100473.81;;;2.55;100.00
42433;BME280;28071;48.232;20.668;2023-10-09T03:40:42;100459.63;;;2.38;100.00
42433;BME280;28071;48.232;20.668;2023-10-09T03:45:43;100473.75;;;2.17;100.00
42433;BME280;28071;48.232;20.668;2023-10-09T03:50:52;100475.09;;;2.41;100.00
42433;BME280;28071;48.232;20.668;2023-10-09T03:56:11;100481.63;;;2.37;100.00
42433;BME280;28071;48.232;20.668;2023-10-09T04:01:13;100477.72;;;2.50;100.00
42433;BME280;28071;48.232;20.668;2023-10-09T04:06:38;100453.56;;;2.37;100.00
42433;BME280;28071;48.232;20.668;2023-10-09T04:11:38;100436.00;;;2.38;100.00
42433;BME280;28071;48.232;20.668;2023-10-09T04:16:42;100449.16;;;2.75;100.00
42433;BME280;28071;48.232;20.668;2023-10-09T04:21:52;100455.91;;;2.77;100.00
42433;BME280;28071;48.232;20.668;2023-10-09T04:26:55;100458.75;;;2.57;100.00
42433;BME280;28071;48.232;20.668;2023-10-09T04:31:56;100474.97;;;2.79;100.00
42433;BME280;28071;48.232;20.668;2023-10-09T04:37:00;100466.13;;;2.81;100.00
42433;BME280;28071;48.232;20.668;2023-10-09T04:42:01;100476.00;;;2.96;100.00
42433;BME280;28071;48.232;20.668;2023-10-09T04:47:36;100438.75;;;2.83;100.00
42433;BME280;28071;48.232;20.668;2023-10-09T04:52:37;100441.22;;;3.12;100.00
42433;BME280;28071;48.232;20.668;2023-10-09T04:57:40;100389.16;;;2.98;100.00
42433;BME280;28071;48.232;20.668;2023-10-09T05:02:43;100429.88;;;3.29;100.00
42433;BME280;28071;48.232;20.668;2023-10-09T05:07:54;100460.78;;;3.45;100.00
42433;BME280;28071;48.232;20.668;2023-10-09T05:12:55;100454.84;;;3.61;100.00
42433;BME280;28071;48.232;20.668;2023-10-09T05:17:58;100444.81;;;3.11;100.00
42433;BME280;28071;48.232;20.668;2023-10-09T05:23:09;100471.72;;;3.23;100.00
42433;BME280;28071;48.232;20.668;2023-10-09T05:28:39;100455.22;;;3.48;100.00
42433;BME280;28071;48.232;20.668;2023-10-09T05:33:52;100443.13;;;3.73;100.00
42433;BME280;28071;48.232;20.668;2023-10-09T05:38:53;100415.94;;;3.90;100.00
42433;BME280;28071;48.232;20.668;2023-10-09T05:44:00;100424.28;;;4.04;100.00
42433;BME280;28071;48.232;20.668;2023-10-09T05:49:19;100405.88;;;4.38;100.00
42433;BME280;28071;48.232;20.668;2023-10-09T05:54:24;100411.88;;;4.48;100.00
42433;BME280;28071;48.232;20.668;2023-10-09T05:59:43;100381.91;;;4.49;100.00
42433;BME280;28071;48.232;20.668;2023-10-09T06:05:02;100387.72;;;4.61;100.00
42433;BME280;28071;48.232;20.668;2023-10-09T06:10:19;100408.22;;;4.83;100.00
42433;BME280;28071;48.232;20.668;2023-10-09T06:15:38;100423.63;;;5.04;100.00
42433;BME280;28071;48.232;20.668;2023-10-09T06:20:48;100374.38;;;5.13;100.00
42433;BME280;28071;48.232;20.668;2023-10-09T06:26:06;100389.88;;;5.08;100.00
42433;BME280;28071;48.232;20.668;2023-10-09T06:31:24;100418.06;;;5.15;100.00
42433;BME280;28071;48.232;20.668;2023-10-09T06:36:50;100406.03;;;5.21;100.00
42433;BME280;28071;48.232;20.668;2023-10-09T06:41:53;100387.41;;;5.14;100.00
42433;BME280;28071;48.232;20.668;2023-10-09T06:47:09;100402.91;;;5.17;100.00
42433;BME280;28071;48.232;20.668;2023-10-09T06:52:09;100404.41;;;5.36;100.00
42433;BME280;28071;48.232;20.668;2023-10-09T06:57:17;100419.59;;;5.50;100.00
42433;BME280;28071;48.232;20.668;2023-10-09T07:02:37;100386.28;;;5.66;100.00
42433;BME280;28071;48.232;20.668;2023-10-09T07:07:46;100412.38;;;5.85;100.00
42433;BME280;28071;48.232;20.668;2023-10-09T07:12:55;100424.59;;;6.02;100.00
42433;BME280;28071;48.232;20.668;2023-10-09T07:17:57;100421.25;;;6.25;100.00
42433;BME280;28071;48.232;20.668;2023-10-09T07:23:17;100411.84;;;6.30;100.00
42433;BME280;28071;48.232;20.668;2023-10-09T07:28:21;100376.53;;;6.23;100.00
42433;BME280;28071;48.232;20.668;2023-10-09T07:33:42;100361.94;;;6.44;100.00
42433;BME280;28071;48.232;20.668;2023-10-09T07:38:58;100349.84;;;6.49;100.00
42433;BME280;28071;48.232;20.668;2023-10-09T07:44:00;100337.53;;;6.73;100.00
42433;BME280;28071;48.232;20.668;2023-10-09T07:49:19;100325.25;;;6.80;100.00
42433;BME280;28071;48.232;20.668;2023-10-09T07:54:25;100309.69;;;6.85;100.00
42433;BME280;28071;48.232;20.668;2023-10-09T07:59:32;100341.03;;;7.19;100.00
42433;BME280;28071;48.232;20.668;2023-10-09T08:04:32;100367.72;;;7.32;100.00
42433;BME280;28071;48.232;20.668;2023-10-09T08:09:53;100355.81;;;7.36;100.00
42433;BME280;28071;48.232;20.668;2023-10-09T08:15:13;100372.03;;;7.33;100.00
42433;BME280;28071;48.232;20.668;2023-10-09T08:20:23;100411.44;;;7.51;100.00
42433;BME280;28071;48.232;20.668;2023-10-09T08:25:26;100360.34;;;7.28;100.00
42433;BME280;28071;48.232;20.668;2023-10-09T08:30:28;100384.41;;;7.56;100.00
42433;BME280;28071;48.232;20.668;2023-10-09T08:35:32;100366.00;;;7.62;100.00
42433;BME280;28071;48.232;20.668;2023-10-09T08:40:35;100349.28;;;7.62;100.00
42433;BME280;28071;48.232;20.668;2023-10-09T08:45:40;100349.88;;;7.72;100.00
42433;BME280;28071;48.232;20.668;2023-10-09T08:50:42;100317.03;;;7.96;100.00
42433;BME280;28071;48.232;20.668;2023-10-09T08:55:46;100274.47;;;7.83;100.00
42433;BME280;28071;48.232;20.668;2023-10-09T09:00:47;100263.78;;;7.91;100.00
42433;BME280;28071;48.232;20.668;2023-10-09T09:05:56;100272.84;;;7.96;100.00
42433;BME280;28071;48.232;20.668;2023-10-09T09:16:31;100333.84;;;8.03;100.00
42433;BME280;28071;48.232;20.668;2023-10-09T09:21:33;100302.16;;;7.95;100.00
42433;BME280;28071;48.232;20.668;2023-10-09T09:26:41;100311.75;;;8.11;100.00
42433;BME280;28071;48.232;20.668;2023-10-09T09:31:55;100328.00;;;8.22;100.00
42433;BME280;28071;48.232;20.668;2023-10-09T09:36:58;100261.50;;;8.02;100.00
42433;BME280;28071;48.232;20.668;2023-10-09T09:42:00;100261.13;;;8.20;100.00
42433;BME280;28071;48.232;20.668;2023-10-09T09:47:17;100298.22;;;8.50;100.00
42433;BME280;28071;48.232;20.668;2023-10-09T09:52:29;100263.09;;;8.63;100.00
42433;BME280;28071;48.232;20.668;2023-10-09T09:57:38;100274.28;;;8.43;100.00
42433;BME280;28071;48.232;20.668;2023-10-09T10:02:40;100273.16;;;8.52;100.00
42433;BME280;28071;48.232;20.668;2023-10-09T10:07:41;100266.41;;;8.50;100.00
42433;BME280;28071;48.232;20.668;2023-10-09T10:12:49;100258.44;;;8.50;100.00
42433;BME280;28071;48.232;20.668;2023-10-09T10:23:17;100184.19;;;8.14;100.00
42433;BME280;28071;48.232;20.668;2023-10-09T10:28:19;100225.34;;;8.46;100.00
42433;BME280;28071;48.232;20.668;2023-10-09T10:39:05;100181.38;;;8.51;100.00
42433;BME280;28071;48.232;20.668;2023-10-09T10:44:10;100174.38;;;8.44;100.00
42433;BME280;28071;48.232;20.668;2023-10-09T10:49:34;100151.53;;;8.43;100.00
42433;BME280;28071;48.232;20.668;2023-10-09T10:54:37;100161.38;;;8.49;100.00
42433;BME280;28071;48.232;20.668;2023-10-09T10:59:40;100142.63;;;8.50;100.00
42433;BME280;28071;48.232;20.668;2023-10-09T11:04:45;100121.75;;;8.41;100.00
42433;BME280;28071;48.232;20.668;2023-10-09T11:09:54;100114.00;;;8.39;100.00
42433;BME280;28071;48.232;20.668;2023-10-09T11:15:30;100118.03;;;8.20;100.00
42433;BME280;28071;48.232;20.668;2023-10-09T11:20:37;100139.66;;;8.39;100.00
42433;BME280;28071;48.232;20.668;2023-10-09T11:25:45;100147.06;;;8.28;100.00
42433;BME280;28071;48.232;20.668;2023-10-09T11:30:52;100119.88;;;8.20;100.00
42433;BME280;28071;48.232;20.668;2023-10-09T11:35:56;100092.09;;;8.16;100.00
42433;BME280;28071;48.232;20.668;2023-10-09T11:40:57;100114.81;;;8.40;100.00
42433;BME280;28071;48.232;20.668;2023-10-09T11:46:10;100079.75;;;8.44;100.00
42433;BME280;28071;48.232;20.668;2023-10-09T11:51:33;100089.28;;;8.60;100.00
42433;BME280;28071;48.232;20.668;2023-10-09T11:56:38;100069.69;;;8.61;100.00
42433;BME280;28071;48.232;20.668;2023-10-09T12:01:38;100055.69;;;8.67;100.00
42433;BME280;28071;48.232;20.668;2023-10-09T12:06:42;100041.56;;;8.60;100.00
42433;BME280;28071;48.232;20.668;2023-10-09T12:11:44;100036.91;;;8.62;100.00
42433;BME280;28071;48.232;20.668;2023-10-09T12:16:52;100026.16;;;8.70;100.00
42433;BME280;28071;48.232;20.668;2023-10-09T12:21:53;100051.25;;;8.74;100.00
42433;BME280;28071;48.232;20.668;2023-10-09T12:26:54;100011.81;;;8.65;100.00
42433;BME280;28071;48.232;20.668;2023-10-09T12:31:55;100029.66;;;8.77;100.00
42433;BME280;28071;48.232;20.668;2023-10-09T12:36:59;100007.78;;;8.75;100.00
42433;BME280;28071;48.232;20.668;2023-10-09T12:42:02;100005.84;;;8.90;100.00
42433;BME280;28071;48.232;20.668;2023-10-09T12:47:07;99994.69;;;9.02;100.00
42433;BME280;28071;48.232;20.668;2023-10-09T12:52:07;100005.94;;;9.04;100.00
42433;BME280;28071;48.232;20.668;2023-10-09T12:57:15;100027.00;;;9.12;100.00
42433;BME280;28071;48.232;20.668;2023-10-09T13:02:15;99991.63;;;9.05;100.00
42433;BME280;28071;48.232;20.668;2023-10-09T13:07:31;99994.97;;;8.79;100.00
42433;BME280;28071;48.232;20.668;2023-10-09T13:12:31;99979.94;;;8.58;100.00
42433;BME280;28071;48.232;20.668;2023-10-09T13:17:32;99960.47;;;8.44;100.00
42433;BME280;28071;48.232;20.668;2023-10-09T13:22:32;99977.22;;;8.45;100.00
42433;BME280;28071;48.232;20.668;2023-10-09T13:27:33;99940.81;;;8.32;100.00
42433;BME280;28071;48.232;20.668;2023-10-09T13:32:34;99957.44;;;8.19;100.00
42433;BME280;28071;48.232;20.668;2023-10-09T13:37:36;99965.78;;;8.23;100.00
42433;BME280;28071;48.232;20.668;2023-10-09T13:42:37;99979.25;;;8.21;100.00
42433;BME280;28071;48.232;20.668;2023-10-09T13:47:38;99970.44;;;7.93;100.00
42433;BME280;28071;48.232;20.668;2023-10-09T13:52:39;99946.47;;;8.01;100.00
42433;BME280;28071;48.232;20.668;2023-10-09T13:57:39;99974.00;;;8.28;100.00
42433;BME280;28071;48.232;20.668;2023-10-09T14:02:43;99962.31;;;8.22;100.00
42433;BME280;28071;48.232;20.668;2023-10-09T14:07:45;99951.75;;;8.01;100.00
42433;BME280;28071;48.232;20.668;2023-10-09T14:12:46;99932.47;;;8.07;100.00
42433;BME280;28071;48.232;20.668;2023-10-09T14:17:46;99926.53;;;8.05;100.00
42433;BME280;28071;48.232;20.668;2023-10-09T14:22:56;99946.19;;;7.89;100.00
42433;BME280;28071;48.232;20.668;2023-10-09T14:27:56;99929.03;;;8.13;100.00
42433;BME280;28071;48.232;20.668;2023-10-09T14:32:58;99925.66;;;7.98;100.00
42433;BME280;28071;48.232;20.668;2023-10-09T14:38:02;99934.38;;;7.92;100.00
42433;BME280;28071;48.232;20.668;2023-10-09T14:43:05;99926.75;;;8.03;100.00
42433;BME280;28071;48.232;20.668;2023-10-09T14:48:08;99941.16;;;8.01;100.00
42433;BME280;28071;48.232;20.668;2023-10-09T14:53:08;99931.72;;;7.92;100.00
42433;BME280;28071;48.232;20.668;2023-10-09T14:58:08;99923.88;;;8.05;100.00
42433;BME280;28071;48.232;20.668;2023-10-09T15:03:12;99911.28;;;7.86;100.00
42433;BME280;28071;48.232;20.668;2023-10-09T15:08:14;99910.03;;;8.03;100.00
42433;BME280;28071;48.232;20.668;2023-10-09T15:13:15;99898.66;;;8.09;100.00
42433;BME280;28071;48.232;20.668;2023-10-09T15:18:18;99891.53;;;8.10;100.00
42433;BME280;28071;48.232;20.668;2023-10-09T15:23:21;99904.34;;;8.06;100.00
42433;BME280;28071;48.232;20.668;2023-10-09T15:28:22;99894.13;;;8.03;100.00
42433;BME280;28071;48.232;20.668;2023-10-09T15:33:23;99881.75;;;7.82;100.00
42433;BME280;28071;48.232;20.668;2023-10-09T15:38:26;99893.53;;;8.07;100.00
42433;BME280;28071;48.232;20.668;2023-10-09T15:43:29;99902.84;;;7.97;100.00
42433;BME280;28071;48.232;20.668;2023-10-09T15:48:29;99886.63;;;7.78;100.00
42433;BME280;28071;48.232;20.668;2023-10-09T15:53:32;99897.09;;;7.93;100.00
42433;BME280;28071;48.232;20.668;2023-10-09T15:58:34;99889.44;;;7.77;100.00
42433;BME280;28071;48.232;20.668;2023-10-09T16:03:34;99893.91;;;7.76;100.00
42433;BME280;28071;48.232;20.668;2023-10-09T16:08:35;99873.75;;;7.75;100.00
42433;BME280;28071;48.232;20.668;2023-10-09T16:13:37;99878.91;;;7.62;100.00
42433;BME280;28071;48.232;20.668;2023-10-09T16:18:39;99867.00;;;7.73;100.00
42433;BME280;28071;48.232;20.668;2023-10-09T16:23:39;99861.41;;;7.61;100.00
42433;BME280;28071;48.232;20.668;2023-10-09T16:28:42;99878.84;;;7.56;100.00
42433;BME280;28071;48.232;20.668;2023-10-09T16:33:44;99874.69;;;7.46;100.00
42433;BME280;28071;48.232;20.668;2023-10-09T16:38:45;99866.22;;;7.51;100.00
42433;BME280;28071;48.232;20.668;2023-10-09T16:43:46;99869.22;;;7.69;100.00
42433;BME280;28071;48.232;20.668;2023-10-09T16:48:51;99882.69;;;7.32;100.00
42433;BME280;28071;48.232;20.668;2023-10-09T16:53:52;99866.69;;;7.40;100.00
42433;BME280;28071;48.232;20.668;2023-10-09T16:58:54;99886.88;;;7.41;100.00
42433;BME280;28071;48.232;20.668;2023-10-09T17:03:55;99889.75;;;7.46;100.00
42433;BME280;28071;48.232;20.668;2023-10-09T17:08:58;99864.63;;;7.35;100.00
42433;BME280;28071;48.232;20.668;2023-10-09T17:14:00;99896.25;;;7.43;100.00
42433;BME280;28071;48.232;20.668;2023-10-09T17:19:01;99902.63;;;7.49;100.00
42433;BME280;28071;48.232;20.668;2023-10-09T17:24:02;99908.69;;;7.43;100.00
42433;BME280;28071;48.232;20.668;2023-10-09T17:29:04;99898.38;;;7.55;100.00
42433;BME280;28071;48.232;20.668;2023-10-09T17:34:05;99887.44;;;7.36;100.00
42433;BME280;28071;48.232;20.668;2023-10-09T17:39:07;99881.06;;;7.31;100.00
42433;BME280;28071;48.232;20.668;2023-10-09T17:44:08;99882.69;;;7.32;100.00
42433;BME280;28071;48.232;20.668;2023-10-09T17:49:09;99892.28;;;7.33;100.00
42433;BME280;28071;48.232;20.668;2023-10-09T17:54:10;99906.47;;;7.46;100.00
42433;BME280;28071;48.232;20.668;2023-10-09T17:59:13;99896.59;;;7.34;100.00
42433;BME280;28071;48.232;20.668;2023-10-09T18:04:14;99894.09;;;7.32;100.00
42433;BME280;28071;48.232;20.668;2023-10-09T18:09:15;99881.25;;;7.29;100.00
42433;BME280;28071;48.232;20.668;2023-10-09T18:14:17;99851.44;;;6.99;100.00
42433;BME280;28071;48.232;20.668;2023-10-09T18:19:18;99867.53;;;7.19;100.00
42433;BME280;28071;48.232;20.668;2023-10-09T18:24:21;99876.00;;;7.14;100.00
42433;BME280;28071;48.232;20.668;2023-10-09T18:29:23;99885.63;;;7.01;100.00
42433;BME280;28071;48.232;20.668;2023-10-09T18:34:24;99894.38;;;7.01;100.00
42433;BME280;28071;48.232;20.668;2023-10-09T18:39:30;99904.41;;;7.06;100.00
42433;BME280;28071;48.232;20.668;2023-10-09T18:44:31;99910.72;;;7.05;100.00
42433;BME280;28071;48.232;20.668;2023-10-09T18:49:32;99893.56;;;7.01;100.00
42433;BME280;28071;48.232;20.668;2023-10-09T18:54:33;99887.53;;;7.07;100.00
42433;BME280;28071;48.232;20.668;2023-10-09T18:59:37;99862.75;;;6.93;100.00
42433;BME280;28071;48.232;20.668;2023-10-09T19:04:38;99878.41;;;7.09;100.00
42433;BME280;28071;48.232;20.668;2023-10-09T19:09:39;99880.03;;;7.10;100.00
42433;BME280;28071;48.232;20.668;2023-10-09T19:14:41;99861.50;;;6.89;100.00
42433;BME280;28071;48.232;20.668;2023-10-09T19:19:41;99863.16;;;6.90;100.00
42433;BME280;28071;48.232;20.668;2023-10-09T19:24:43;99861.09;;;7.07;100.00
42433;BME280;28071;48.232;20.668;2023-10-09T19:29:46;99869.84;;;7.07;100.00
42433;BME280;28071;48.232;20.668;2023-10-09T19:34:47;99871.84;;;7.05;100.00
42433;BME280;28071;48.232;20.668;2023-10-09T19:39:48;99866.59;;;6.90;100.00
42433;BME280;28071;48.232;20.668;2023-10-09T19:44:50;99887.75;;;6.90;100.00
42433;BME280;28071;48.232;20.668;2023-10-09T19:49:53;99902.91;;;6.82;100.00
42433;BME280;28071;48.232;20.668;2023-10-09T19:54:54;99888.97;;;6.73;100.00
42433;BME280;28071;48.232;20.668;2023-10-09T19:59:56;99894.63;;;6.70;100.00
42433;BME280;28071;48.232;20.668;2023-10-09T20:04:57;99895.19;;;6.65;100.00
42433;BME280;28071;48.232;20.668;2023-10-09T20:10:00;99903.00;;;6.74;100.00
42433;BME280;28071;48.232;20.668;2023-10-09T20:15:02;99902.25;;;6.80;100.00
42433;BME280;28071;48.232;20.668;2023-10-09T20:20:03;99908.41;;;6.65;100.00
42433;BME280;28071;48.232;20.668;2023-10-09T20:25:08;99911.03;;;6.51;100.00
42433;BME280;28071;48.232;20.668;2023-10-09T20:30:17;99917.88;;;6.60;100.00
42433;BME280;28071;48.232;20.668;2023-10-09T20:35:19;99925.41;;;6.78;100.00
42433;BME280;28071;48.232;20.668;2023-10-09T20:40:19;99888.41;;;6.63;100.00
42433;BME280;28071;48.232;20.668;2023-10-09T20:45:20;99911.38;;;6.62;100.00
42433;BME280;28071;48.232;20.668;2023-10-09T20:50:22;99895.34;;;6.34;100.00
42433;BME280;28071;48.232;20.668;2023-10-09T20:55:25;99899.81;;;6.34;100.00
42433;BME280;28071;48.232;20.668;2023-10-09T21:00:27;99889.16;;;6.42;100.00
42433;BME280;28071;48.232;20.668;2023-10-09T21:05:27;99891.16;;;6.55;100.00
42433;BME280;28071;48.232;20.668;2023-10-09T21:10:27;99891.72;;;6.50;100.00
42433;BME280;28071;48.232;20.668;2023-10-09T21:15:30;99907.75;;;6.49;100.00
42433;BME280;28071;48.232;20.668;2023-10-09T21:20:34;99871.84;;;6.39;100.00
42433;BME280;28071;48.232;20.668;2023-10-09T21:25:35;99916.75;;;6.84;100.00
42433;BME280;28071;48.232;20.668;2023-10-09T21:30:35;99915.13;;;6.83;100.00
42433;BME280;28071;48.232;20.668;2023-10-09T21:35:38;99914.22;;;6.76;100.00
42433;BME280;28071;48.232;20.668;2023-10-09T21:40:40;99933.09;;;6.73;100.00
42433;BME280;28071;48.232;20.668;2023-10-09T21:45:41;99923.50;;;6.57;100.00
42433;BME280;28071;48.232;20.668;2023-10-09T21:50:52;99897.44;;;6.54;100.00
42433;BME280;28071;48.232;20.668;2023-10-09T21:56:04;99860.28;;;6.26;100.00
42433;BME280;28071;48.232;20.668;2023-10-09T22:01:04;99916.03;;;6.46;100.00
42433;BME280;28071;48.232;20.668;2023-10-09T22:06:08;99907.59;;;6.50;100.00
42433;BME280;28071;48.232;20.668;2023-10-09T22:11:10;99908.31;;;6.59;100.00
42433;BME280;28071;48.232;20.668;2023-10-09T22:16:11;99912.78;;;6.73;100.00
42433;BME280;28071;48.232;20.668;2023-10-09T22:21:11;99915.47;;;6.80;100.00
42433;BME280;28071;48.232;20.668;2023-10-09T22:26:12;99912.78;;;6.73;100.00
42433;BME280;28071;48.232;20.668;2023-10-09T22:31:17;99925.16;;;6.58;100.00
42433;BME280;28071;48.232;20.668;2023-10-09T22:36:20;99917.06;;;6.59;100.00
42433;BME280;28071;48.232;20.668;2023-10-09T22:41:27;99907.31;;;6.45;100.00
42433;BME280;28071;48.232;20.668;2023-10-09T22:46:30;99923.06;;;6.68;100.00
42433;BME280;28071;48.232;20.668;2023-10-09T22:51:30;99904.03;;;6.43;100.00
42433;BME280;28071;48.232;20.668;2023-10-09T22:56:31;99934.16;;;6.49;100.00
42433;BME280;28071;48.232;20.668;2023-10-09T23:01:31;99934.91;;;6.43;100.00
42433;BME280;28071;48.232;20.668;2023-10-09T23:06:33;99946.00;;;6.38;100.00
42433;BME280;28071;48.232;20.668;2023-10-09T23:11:34;99971.72;;;6.59;100.00
42433;BME280;28071;48.232;20.668;2023-10-09T23:16:34;99937.72;;;6.41;100.00
42433;BME280;28071;48.232;20.668;2023-10-09T23:21:47;99954.94;;;6.37;100.00
42433;BME280;28071;48.232;20.668;2023-10-09T23:27:06;99968.13;;;6.22;100.00
42433;BME280;28071;48.232;20.668;2023-10-09T23:32:26;99969.72;;;6.08;100.00
42433;BME280;28071;48.232;20.668;2023-10-09T23:37:32;99975.81;;;6.09;100.00
42433;BME280;28071;48.232;20.668;2023-10-09T23:42:39;99983.34;;;5.97;100.00
42433;BME280;28071;48.232;20.668;2023-10-09T23:47:50;99984.59;;;5.78;100.00
42433;BME280;28071;48.232;20.668;2023-10-09T23:52:51;99981.66;;;5.73;100.00
42433;BME280;28071;48.232;20.668;2023-10-09T23:57:54;99981.78;;;5.57;100.00
